Perseverance — WDD5594 — position and weather

sailwx.info

Track history (hours):
 
Tides and Currents Weather Stations Pressure Air Temp Water Temp Dewpoint Dewpoint Depression Visibility Wind Speed Wind Dir Waves Ship Positions

Perseverance

Owner: Cooper, Mark E, Toledo, OR. More information available from US FCC via Universal Licensing System and Coast Guard Vessel Documentation Center.

Last reported at 2018-Jun-18 09:00 UTC. Time now 2018-Jun-18 09:14 UTC.
Position N 47°19' W 124°46'.

Type: Fishing. MMSI: 367618000.

Date/timePositionNaut miles runAvg speedWind from/ knotsBaromVisibWave heightAir tempDewpointWater temp
2018-Jun-18 09:00N 47°19' W 124°46'4 8.8
2018-Jun-18 08:30N 47°15' W 124°43'4 8.6
2018-Jun-18 07:59N 47°11' W 124°40'4 8.6
2018-Jun-18 07:30N 47°07' W 124°37'4 8.7
2018-Jun-18 06:59N 47°03' W 124°35'4 8.7
2018-Jun-18 06:30N 46°59' W 124°32'4 8.8
2018-Jun-18 06:00N 46°55' W 124°30'4 9.0
2018-Jun-18 05:30N 46°51' W 124°27'4 8.8
2018-Jun-18 05:00N 46°47' W 124°25'4 9.0
2018-Jun-18 04:31N 46°43' W 124°23'4 7.4
2018-Jun-18 04:00N 46°40' W 124°20'4 8.6
2018-Jun-18 03:31N 46°36' W 124°17'4 8.7
2018-Jun-18 03:00N 46°32' W 124°15'8 8.9
2018-Jun-18 02:06N 46°24' W 124°11'1 8.8
2018-Jun-18 02:01N 46°23' W 124°11'4 8.7
2018-Jun-18 01:30N 46°19' W 124°09'4 7.7
2018-Jun-18 01:00N 46°15' W 124°07'4 8.3
2018-Jun-18 00:30N 46°15' W 124°01'4 7.4
2018-Jun-18 00:01N 46°13' W 123°57'4 7.2
2018-Jun-17 23:30N 46°11' W 123°52'0 0.1
2018-Jun-17 22:47N 46°11' W 123°52'0 0.0
2018-Jun-17 22:30N 46°11' W 123°52'0 0.0
2018-Jun-17 22:01N 46°11' W 123°52'0 0.0
2018-Jun-17 21:21N 46°11' W 123°52'0 0.0
2018-Jun-17 20:56N 46°11' W 123°52'0 0.0
2018-Jun-17 20:23N 46°11' W 123°52'0 0.0
2018-Jun-17 20:01N 46°11' W 123°52'1 1.9
2018-Jun-17 19:31N 46°12' W 123°50'0 0.3
2018-Jun-17 19:01N 46°12' W 123°50'0 0.4
2018-Jun-17 18:31N 46°12' W 123°51'1 1.7
2018-Jun-17 18:01N 46°11' W 123°52'0 0.0
2018-Jun-17 17:31N 46°11' W 123°52'0 0.0
2018-Jun-17 17:00N 46°11' W 123°52'0 0.0
2018-Jun-17 16:30N 46°11' W 123°52'0 0.0
2018-Jun-17 15:56N 46°11' W 123°52'0 0.0
2018-Jun-17 15:30N 46°11' W 123°52'0 0.0
2018-Jun-17 15:00N 46°11' W 123°52'0 0.0
2018-Jun-17 14:30N 46°11' W 123°52'0 0.0
2018-Jun-17 14:01N 46°11' W 123°52'0 0.0
2018-Jun-17 13:30N 46°11' W 123°52'0 0.0
2018-Jun-17 13:00N 46°11' W 123°52'0 0.0
2018-Jun-17 12:30N 46°11' W 123°52'0 0.0
2018-Jun-17 12:00N 46°11' W 123°52'2 4.3
2018-Jun-17 11:30N 46°12' W 123°55'4 8.9
2018-Jun-17 11:01N 46°14' W 123°60'5 9.2
2018-Jun-17 10:31N 46°15' W 124°06'7 9.1
2018-Jun-17 09:44N 46°22' W 124°11'2 9.5
2018-Jun-17 09:31N 46°24' W 124°12'5 9.3
2018-Jun-17 09:01N 46°28' W 124°14'5 9.3
2018-Jun-17 08:30N 46°33' W 124°17'5 9.4
2018-Jun-17 08:00N 46°37' W 124°19'4 8.8
2018-Jun-17 07:30N 46°41' W 124°22'5 8.8
2018-Jun-17 06:59N 46°45' W 124°25'4 9.1
2018-Jun-17 06:30N 46°49' W 124°27'5 9.2
2018-Jun-17 06:01N 46°53' W 124°29'5 9.6
2018-Jun-17 05:31N 46°58' W 124°32'6 9.5
2018-Jun-17 04:52N 47°03' W 124°35'3 9.2
2018-Jun-17 04:30N 47°07' W 124°37'4 9.0
2018-Jun-17 04:00N 47°11' W 124°40'5 9.4
2018-Jun-17 03:29N 47°15' W 124°42'4 9.3
2018-Jun-17 03:00N 47°19' W 124°45'4 8.6
2018-Jun-17 02:30N 47°23' W 124°48'3 2.7
2018-Jun-17 01:13N 47°26' W 124°49'0 0.2
2018-Jun-17 01:00N 47°26' W 124°49'2 3.3
2018-Jun-17 00:30N 47°25' W 124°48'26 2.9
2018-Jun-16 15:32N 46°60' W 124°35'1 9.3
2018-Jun-16 15:29N 46°59' W 124°35'4 9.4
2018-Jun-16 15:00N 46°55' W 124°32'5 9.9
2018-Jun-16 14:30N 46°51' W 124°30'5 9.8
2018-Jun-16 14:01N 46°46' W 124°27'5 9.3
2018-Jun-16 13:31N 46°42' W 124°24'5 9.5
2018-Jun-16 13:00N 46°38' W 124°22'5 9.6
2018-Jun-16 12:30N 46°33' W 124°19'5 9.5
2018-Jun-16 12:00N 46°29' W 124°16'5 9.6
2018-Jun-16 11:30N 46°24' W 124°13'5 9.6
2018-Jun-16 11:01N 46°20' W 124°11'5 9.4
2018-Jun-16 10:31N 46°16' W 124°08'4 8.9
2018-Jun-16 10:00N 46°15' W 124°01'4 8.6
2018-Jun-16 09:31N 46°13' W 123°57'4 7.1
2018-Jun-16 09:01N 46°11' W 123°52'0 0.0
2018-Jun-16 08:30N 46°11' W 123°52'0 0.0
2018-Jun-16 08:01N 46°11' W 123°52'0 0.0
2018-Jun-16 07:31N 46°11' W 123°52'0 0.0
2018-Jun-16 06:59N 46°11' W 123°52'0 0.0
2018-Jun-16 06:31N 46°11' W 123°52'0 0.0
2018-Jun-16 06:01N 46°11' W 123°52'0 0.0
2018-Jun-16 05:30N 46°11' W 123°52'0 0.0
2018-Jun-16 05:01N 46°11' W 123°52'0 0.0
2018-Jun-16 04:28N 46°11' W 123°52'1 2.3
2018-Jun-16 03:54N 46°11' W 123°54'2 5.5
2018-Jun-16 03:30N 46°12' W 123°56'3 5.6
2018-Jun-16 03:01N 46°15' W 123°59'3 5.3
2018-Jun-16 02:31N 46°16' W 124°02'3 5.4
2018-Jun-16 01:53N 46°17' W 124°07'4 9.6
2018-Jun-16 01:30N 46°20' W 124°09'5 9.6
2018-Jun-16 01:01N 46°25' W 124°11'5 9.8
2018-Jun-16 00:30N 46°29' W 124°14'510.2
2018-Jun-16 00:01N 46°34' W 124°17'510.2
2018-Jun-15 23:31N 46°39' W 124°19'510.4
2018-Jun-15 23:00N 46°44' W 124°21'510.5
2018-Jun-15 22:30N 46°49' W 124°24'510.0
2018-Jun-15 22:00N 46°53' W 124°26'5 9.3
2018-Jun-15 21:30N 46°58' W 124°28'5 9.0
2018-Jun-15 20:59N 47°02' W 124°31'4 0.1
2018-Jun-14 14:45N 46°60' W 124°35'4 9.4
2018-Jun-14 14:23N 46°57' W 124°33'3 9.5
2018-Jun-14 14:00N 46°53' W 124°31'5 9.5
2018-Jun-14 13:30N 46°49' W 124°28'5 9.6
2018-Jun-14 13:00N 46°45' W 124°25'5 9.6
2018-Jun-14 12:30N 46°40' W 124°23'5 9.4
2018-Jun-14 12:01N 46°36' W 124°20'5 9.4
2018-Jun-14 11:30N 46°31' W 124°18'5 9.7
2018-Jun-14 11:01N 46°27' W 124°15'510.0
2018-Jun-14 10:30N 46°22' W 124°13'5 9.3
2018-Jun-14 10:01N 46°18' W 124°10'4 8.8
2018-Jun-14 09:30N 46°15' W 124°05'5 9.8
2018-Jun-14 09:01N 46°14' W 123°58'5 9.4
2018-Jun-14 08:30N 46°12' W 123°52'0 1.0
2018-Jun-14 08:00N 46°11' W 123°52'0 0.0
2018-Jun-14 07:30N 46°11' W 123°52'0 0.1
2018-Jun-14 06:59N 46°11' W 123°52'0 0.1
2018-Jun-14 06:30N 46°11' W 123°52'0 0.0
2018-Jun-14 06:00N 46°11' W 123°52'0 0.0
2018-Jun-14 05:23N 46°11' W 123°52'0 0.0
2018-Jun-14 05:00N 46°11' W 123°52'0 0.0
2018-Jun-14 04:30N 46°11' W 123°52'0 0.0
2018-Jun-14 04:00N 46°11' W 123°52'0 0.1
2018-Jun-14 03:18N 46°11' W 123°52'0 0.1
2018-Jun-14 03:00N 46°11' W 123°52'0 0.9
2018-Jun-14 02:30N 46°11' W 123°52'3 5.1
2018-Jun-14 02:01N 46°12' W 123°56'3 5.6
2018-Jun-14 01:30N 46°14' W 123°59'3 5.6
2018-Jun-14 01:00N 46°16' W 124°02'3 5.3
2018-Jun-14 00:30N 46°16' W 124°06'4 8.1
2018-Jun-14 00:00N 46°19' W 124°09'5 9.1
2018-Jun-13 23:30N 46°23' W 124°11'5 9.0
2018-Jun-13 23:01N 46°27' W 124°14'4 8.8
2018-Jun-13 22:30N 46°32' W 124°16'4 8.3
2018-Jun-13 22:00N 46°35' W 124°19'4 8.5
2018-Jun-13 21:30N 46°39' W 124°21'4 8.6
2018-Jun-13 21:00N 46°43' W 124°24'4 8.6
2018-Jun-13 20:31N 46°47' W 124°26'4 8.7
2018-Jun-13 20:00N 46°51' W 124°29'4 8.8
2018-Jun-13 19:30N 46°55' W 124°31'4 8.6
2018-Jun-13 19:00N 46°59' W 124°34'3 0.2
2018-Jun-13 06:33N 46°60' W 124°37'2 7.4
2018-Jun-13 06:14N 46°58' W 124°36'2 7.5
2018-Jun-13 06:00N 46°56' W 124°35'4 7.6
2018-Jun-13 05:31N 46°53' W 124°32'4 7.8
2018-Jun-13 05:01N 46°49' W 124°30'4 7.8
2018-Jun-13 04:30N 46°46' W 124°28'6 7.7
2018-Jun-13 03:47N 46°41' W 124°25'3 8.3
2018-Jun-13 03:27N 46°38' W 124°23'4 8.4
2018-Jun-13 03:00N 46°35' W 124°21'6 8.0
2018-Jun-13 02:14N 46°29' W 124°17'2 8.1
2018-Jun-13 02:00N 46°27' W 124°16'4 7.9
2018-Jun-13 01:30N 46°24' W 124°15'1 1.2
2018-Jun-13 01:00N 46°23' W 124°14'2 3.5
2018-Jun-13 00:30N 46°22' W 124°13'4 7.3
2018-Jun-13 00:01N 46°18' W 124°11'4 7.4
2018-Jun-12 23:31N 46°16' W 124°07'611.0
2018-Jun-12 22:59N 46°14' W 123°59'510.5
2018-Jun-12 22:30N 46°11' W 123°53'1 1.8
2018-Jun-12 22:00N 46°11' W 123°52'0 0.0
2018-Jun-12 21:26N 46°11' W 123°52'0 0.0
2018-Jun-12 21:00N 46°11' W 123°52'0 0.1
2018-Jun-12 20:30N 46°11' W 123°52'0 0.1
2018-Jun-12 20:00N 46°11' W 123°52'0 0.0
2018-Jun-12 19:30N 46°11' W 123°52'0 0.0
2018-Jun-12 19:00N 46°11' W 123°52'0 0.0
2018-Jun-12 18:30N 46°11' W 123°52'0 0.0
2018-Jun-12 18:01N 46°11' W 123°52'0 0.0
2018-Jun-12 17:20N 46°11' W 123°52'0 0.0
2018-Jun-12 17:01N 46°11' W 123°52'1 1.2
2018-Jun-12 16:30N 46°12' W 123°51'1 1.0
2018-Jun-12 16:00N 46°12' W 123°50'0 0.3
2018-Jun-12 15:31N 46°12' W 123°51'3 6.1
2018-Jun-12 15:00N 46°12' W 123°55'4 7.2
2018-Jun-12 14:31N 46°14' W 123°59'3 6.6
2018-Jun-12 14:01N 46°15' W 124°03'3 5.7
2018-Jun-12 13:30N 46°16' W 124°07'3 6.1
2018-Jun-12 13:00N 46°19' W 124°09'3 7.0
2018-Jun-12 12:31N 46°23' W 124°10'4 7.7
2018-Jun-12 12:00N 46°26' W 124°13'6 7.8
2018-Jun-12 11:17N 46°31' W 124°16'2 8.4
2018-Jun-12 11:01N 46°34' W 124°17'4 8.1
2018-Jun-12 10:31N 46°37' W 124°19'4 8.3
2018-Jun-12 10:00N 46°41' W 124°21'4 8.6
2018-Jun-12 09:30N 46°45' W 124°23'4 8.8
2018-Jun-12 09:00N 46°49' W 124°26'4 8.6
2018-Jun-12 08:31N 46°53' W 124°28'4 8.5
2018-Jun-12 08:00N 46°57' W 124°30'4 8.5
2018-Jun-12 07:30N 47°01' W 124°32'10 8.7
2018-Jun-12 06:24N 47°10' W 124°38'4 9.0
2018-Jun-12 06:00N 47°13' W 124°40'5 8.9
2018-Jun-12 05:30N 47°18' W 124°42'19 1.2
2018-Jun-11 14:23N 46°60' W 124°35'3 9.0
2018-Jun-11 14:01N 46°57' W 124°33'5 9.3
2018-Jun-11 13:30N 46°52' W 124°30'5 9.3
2018-Jun-11 13:00N 46°48' W 124°28'5 9.6
2018-Jun-11 12:30N 46°43' W 124°25'6 9.8
2018-Jun-11 11:56N 46°38' W 124°22'410.0
2018-Jun-11 11:30N 46°34' W 124°20'5 9.8
2018-Jun-11 11:00N 46°30' W 124°17'1010.3
2018-Jun-11 10:05N 46°21' W 124°12'110.9
2018-Jun-11 10:00N 46°20' W 124°11'6 9.2
2018-Jun-11 09:20N 46°15' W 124°06'411.5
2018-Jun-11 09:01N 46°15' W 124°00'611.9
2018-Jun-11 08:30N 46°11' W 123°53'1 2.2
2018-Jun-11 08:01N 46°11' W 123°52'0 0.0
2018-Jun-11 07:30N 46°11' W 123°52'0 0.0
2018-Jun-11 06:58N 46°11' W 123°52'0 0.0
2018-Jun-11 06:30N 46°11' W 123°52'0 0.0
2018-Jun-11 06:00N 46°11' W 123°52'0 0.0
2018-Jun-11 05:23N 46°11' W 123°52'0 0.0
2018-Jun-11 05:00N 46°11' W 123°52'0 0.0
2018-Jun-11 04:17N 46°11' W 123°52'0 0.0
2018-Jun-11 04:00N 46°11' W 123°52'0 0.0
2018-Jun-11 03:30N 46°11' W 123°52'1 2.5
2018-Jun-11 03:00N 46°11' W 123°54'5 9.7
2018-Jun-11 02:30N 46°14' W 123°59'5 9.1
2018-Jun-11 02:00N 46°15' W 124°06'4 7.8
2018-Jun-11 01:30N 46°19' W 124°09'5 8.5
2018-Jun-11 00:55N 46°23' W 124°12'5 8.6
2018-Jun-11 00:20N 46°28' W 124°15'3 9.4
2018-Jun-11 00:00N 46°31' W 124°17'5 9.6
2018-Jun-10 23:30N 46°35' W 124°19'5 9.4
2018-Jun-10 23:00N 46°39' W 124°22'5 9.5
2018-Jun-10 22:30N 46°44' W 124°24'5 9.6
2018-Jun-10 22:00N 46°48' W 124°27'6 9.7
2018-Jun-10 21:23N 46°54' W 124°30'3 8.4
2018-Jun-10 21:00N 46°57' W 124°31'4 0.3
2018-Jun-10 05:17N 46°60' W 124°35'1 5.1
2018-Jun-10 05:00N 46°59' W 124°34'3 5.4
2018-Jun-10 04:30N 46°56' W 124°33'3 5.3
2018-Jun-10 04:00N 46°54' W 124°31'4 5.3
2018-Jun-10 03:11N 46°50' W 124°29'1 5.4
2018-Jun-10 03:00N 46°49' W 124°28'4 5.5
2018-Jun-10 02:15N 46°45' W 124°26'1 5.6
2018-Jun-10 02:00N 46°44' W 124°25'3 5.8
2018-Jun-10 01:30N 46°41' W 124°24'6 5.2
2018-Jun-10 00:26N 46°36' W 124°21'3 6.5
2018-Jun-10 00:00N 46°33' W 124°19'3 6.4
2018-Jun-09 23:30N 46°30' W 124°18'3 6.5
2018-Jun-09 23:00N 46°27' W 124°16'3 6.3
2018-Jun-09 22:30N 46°24' W 124°15'3 6.5
2018-Jun-09 22:00N 46°21' W 124°13'3 6.9
2018-Jun-09 21:30N 46°18' W 124°11'4 7.5
2018-Jun-09 21:00N 46°15' W 124°07'5 9.2
2018-Jun-09 20:30N 46°15' W 124°00'4 7.9
2018-Jun-09 20:00N 46°12' W 123°56'0 0.0
2018-Jun-09 19:30N 46°12' W 123°56'0 0.0
2018-Jun-09 18:50N 46°12' W 123°56'0 0.0
2018-Jun-09 18:30N 46°12' W 123°56'0 0.0
2018-Jun-09 18:01N 46°12' W 123°56'0 0.0
2018-Jun-09 17:31N 46°12' W 123°56'0 0.0
2018-Jun-09 17:00N 46°12' W 123°56'0 0.0
2018-Jun-09 16:30N 46°12' W 123°56'0 0.0
2018-Jun-09 16:00N 46°12' W 123°56'0 0.0
2018-Jun-09 15:00N 46°12' W 123°56'0 0.0
2018-Jun-09 14:31N 46°12' W 123°56'0 0.0
2018-Jun-09 13:47N 46°12' W 123°56'0 0.0
2018-Jun-09 13:28N 46°12' W 123°56'0 0.0
2018-Jun-09 13:00N 46°12' W 123°56'0 0.0
2018-Jun-09 12:30N 46°12' W 123°56'0 0.0
2018-Jun-09 12:01N 46°12' W 123°56'0 0.0
2018-Jun-09 11:30N 46°12' W 123°56'0 0.0
2018-Jun-09 11:00N 46°12' W 123°56'0 0.0
2018-Jun-09 10:30N 46°12' W 123°56'0 0.0
2018-Jun-09 10:00N 46°12' W 123°56'0 0.0
2018-Jun-09 09:30N 46°12' W 123°56'0 0.0
2018-Jun-09 09:00N 46°12' W 123°56'0 0.0
2018-Jun-09 08:30N 46°12' W 123°56'0 0.0
2018-Jun-09 08:00N 46°12' W 123°56'0 0.0
2018-Jun-09 07:18N 46°12' W 123°56'0 0.0
2018-Jun-09 06:59N 46°12' W 123°56'0 0.0
2018-Jun-09 06:30N 46°12' W 123°56'0 0.0
2018-Jun-09 06:01N 46°12' W 123°56'0 0.0
2018-Jun-09 05:30N 46°12' W 123°56'0 0.0
2018-Jun-09 05:00N 46°12' W 123°56'0 0.0
2018-Jun-09 04:30N 46°12' W 123°56'0 0.0
2018-Jun-09 03:48N 46°12' W 123°56'0 0.0
2018-Jun-09 03:17N 46°12' W 123°56'0 0.0
2018-Jun-09 02:49N 46°12' W 123°56'0 0.0
2018-Jun-09 02:30N 46°12' W 123°56'0 0.0
2018-Jun-09 01:53N 46°12' W 123°56'0 0.0
2018-Jun-09 01:10N 46°12' W 123°56'0 0.0
2018-Jun-09 01:00N 46°12' W 123°56'0 0.0
2018-Jun-09 00:30N 46°12' W 123°56'0 0.1
2018-Jun-09 00:00N 46°12' W 123°56'0 0.0
2018-Jun-08 23:30N 46°12' W 123°56'0 0.1
2018-Jun-08 23:00N 46°12' W 123°56'3 5.0
2018-Jun-08 22:31N 46°14' W 123°59'3 6.1
2018-Jun-08 22:00N 46°15' W 124°03'3 5.4
2018-Jun-08 21:30N 46°15' W 124°07'2 4.4
2018-Jun-08 21:00N 46°16' W 124°10'3 5.6
2018-Jun-08 20:30N 46°18' W 124°13'3 6.9
2018-Jun-08 20:00N 46°21' W 124°16'4 7.7
2018-Jun-08 19:30N 46°24' W 124°20'4 8.0
2018-Jun-08 19:00N 46°26' W 124°24'4 7.9
2018-Jun-08 18:30N 46°29' W 124°28'4 8.0
2018-Jun-08 18:00N 46°32' W 124°32'4 7.6
2018-Jun-08 17:30N 46°35' W 124°35'4 6.1
2018-Jun-08 16:49N 46°38' W 124°40'1 3.5
2018-Jun-08 16:30N 46°39' W 124°41'1 1.9
2018-Jun-08 16:00N 46°38' W 124°40'1 1.3
2018-Jun-08 15:30N 46°38' W 124°39'1 2.2
2018-Jun-08 14:50N 46°38' W 124°41'1 2.9
2018-Jun-08 14:30N 46°39' W 124°42'1 2.8
2018-Jun-08 14:00N 46°40' W 124°44'1 2.8
2018-Jun-08 13:30N 46°41' W 124°45'2 3.1
2018-Jun-08 13:00N 46°42' W 124°47'1 2.2
2018-Jun-08 12:29N 46°41' W 124°46'3 6.2
2018-Jun-08 12:00N 46°39' W 124°42'2 4.5
2018-Jun-08 11:30N 46°38' W 124°40'2 4.3
2018-Jun-08 11:00N 46°36' W 124°38'2 4.9
2018-Jun-08 10:30N 46°35' W 124°35'4 4.9
2018-Jun-08 09:40N 46°31' W 124°31'1 4.6
2018-Jun-08 09:30N 46°31' W 124°31'  
Track history (hours):
 
Tides and Currents Weather Stations Pressure Air Temp Water Temp Dewpoint Dewpoint Depression Visibility Wind Speed Wind Dir Waves Ship Positions

Perseverance

Owner: Cooper, Mark E, Toledo, OR. More information available from US FCC via Universal Licensing System and Coast Guard Vessel Documentation Center.

Last reported at 2018-Jun-18 09:00 UTC. Time now 2018-Jun-18 09:14 UTC.
Position N 47°19' W 124°46'.

Type: Fishing. MMSI: 367618000.

Date/timePositionNaut miles runAvg speedWind from/ knotsBaromVisibWave heightAir tempDewpointWater temp
2018-Jun-18 09:00N 47°19' W 124°46'4 8.8
2018-Jun-18 08:30N 47°15' W 124°43'4 8.6
2018-Jun-18 07:59N 47°11' W 124°40'4 8.6
2018-Jun-18 07:30N 47°07' W 124°37'4 8.7
2018-Jun-18 06:59N 47°03' W 124°35'4 8.7
2018-Jun-18 06:30N 46°59' W 124°32'4 8.8
2018-Jun-18 06:00N 46°55' W 124°30'4 9.0
2018-Jun-18 05:30N 46°51' W 124°27'4 8.8
2018-Jun-18 05:00N 46°47' W 124°25'4 9.0
2018-Jun-18 04:31N 46°43' W 124°23'4 7.4
2018-Jun-18 04:00N 46°40' W 124°20'4 8.6
2018-Jun-18 03:31N 46°36' W 124°17'4 8.7
2018-Jun-18 03:00N 46°32' W 124°15'8 8.9
2018-Jun-18 02:06N 46°24' W 124°11'1 8.8
2018-Jun-18 02:01N 46°23' W 124°11'4 8.7
2018-Jun-18 01:30N 46°19' W 124°09'4 7.7
2018-Jun-18 01:00N 46°15' W 124°07'4 8.3
2018-Jun-18 00:30N 46°15' W 124°01'4 7.4
2018-Jun-18 00:01N 46°13' W 123°57'4 7.2
2018-Jun-17 23:30N 46°11' W 123°52'0 0.1
2018-Jun-17 22:47N 46°11' W 123°52'0 0.0
2018-Jun-17 22:30N 46°11' W 123°52'0 0.0
2018-Jun-17 22:01N 46°11' W 123°52'0 0.0
2018-Jun-17 21:21N 46°11' W 123°52'0 0.0
2018-Jun-17 20:56N 46°11' W 123°52'0 0.0
2018-Jun-17 20:23N 46°11' W 123°52'0 0.0
2018-Jun-17 20:01N 46°11' W 123°52'1 1.9
2018-Jun-17 19:31N 46°12' W 123°50'0 0.3
2018-Jun-17 19:01N 46°12' W 123°50'0 0.4
2018-Jun-17 18:31N 46°12' W 123°51'1 1.7
2018-Jun-17 18:01N 46°11' W 123°52'0 0.0
2018-Jun-17 17:31N 46°11' W 123°52'0 0.0
2018-Jun-17 17:00N 46°11' W 123°52'0 0.0
2018-Jun-17 16:30N 46°11' W 123°52'0 0.0
2018-Jun-17 15:56N 46°11' W 123°52'0 0.0
2018-Jun-17 15:30N 46°11' W 123°52'0 0.0
2018-Jun-17 15:00N 46°11' W 123°52'0 0.0
2018-Jun-17 14:30N 46°11' W 123°52'0 0.0
2018-Jun-17 14:01N 46°11' W 123°52'0 0.0
2018-Jun-17 13:30N 46°11' W 123°52'0 0.0
2018-Jun-17 13:00N 46°11' W 123°52'0 0.0
2018-Jun-17 12:30N 46°11' W 123°52'0 0.0
2018-Jun-17 12:00N 46°11' W 123°52'2 4.3
2018-Jun-17 11:30N 46°12' W 123°55'4 8.9
2018-Jun-17 11:01N 46°14' W 123°60'5 9.2
2018-Jun-17 10:31N 46°15' W 124°06'7 9.1
2018-Jun-17 09:44N 46°22' W 124°11'2 9.5
2018-Jun-17 09:31N 46°24' W 124°12'5 9.3
2018-Jun-17 09:01N 46°28' W 124°14'5 9.3
2018-Jun-17 08:30N 46°33' W 124°17'5 9.4
2018-Jun-17 08:00N 46°37' W 124°19'4 8.8
2018-Jun-17 07:30N 46°41' W 124°22'5 8.8
2018-Jun-17 06:59N 46°45' W 124°25'4 9.1
2018-Jun-17 06:30N 46°49' W 124°27'5 9.2
2018-Jun-17 06:01N 46°53' W 124°29'5 9.6
2018-Jun-17 05:31N 46°58' W 124°32'6 9.5
2018-Jun-17 04:52N 47°03' W 124°35'3 9.2
2018-Jun-17 04:30N 47°07' W 124°37'4 9.0
2018-Jun-17 04:00N 47°11' W 124°40'5 9.4
2018-Jun-17 03:29N 47°15' W 124°42'4 9.3
2018-Jun-17 03:00N 47°19' W 124°45'4 8.6
2018-Jun-17 02:30N 47°23' W 124°48'3 2.7
2018-Jun-17 01:13N 47°26' W 124°49'0 0.2
2018-Jun-17 01:00N 47°26' W 124°49'2 3.3
2018-Jun-17 00:30N 47°25' W 124°48'26 2.9
2018-Jun-16 15:32N 46°60' W 124°35'1 9.3
2018-Jun-16 15:29N 46°59' W 124°35'4 9.4
2018-Jun-16 15:00N 46°55' W 124°32'5 9.9
2018-Jun-16 14:30N 46°51' W 124°30'5 9.8
2018-Jun-16 14:01N 46°46' W 124°27'5 9.3
2018-Jun-16 13:31N 46°42' W 124°24'5 9.5
2018-Jun-16 13:00N 46°38' W 124°22'5 9.6
2018-Jun-16 12:30N 46°33' W 124°19'5 9.5
2018-Jun-16 12:00N 46°29' W 124°16'5 9.6
2018-Jun-16 11:30N 46°24' W 124°13'5 9.6
2018-Jun-16 11:01N 46°20' W 124°11'5 9.4
2018-Jun-16 10:31N 46°16' W 124°08'4 8.9
2018-Jun-16 10:00N 46°15' W 124°01'4 8.6
2018-Jun-16 09:31N 46°13' W 123°57'4 7.1
2018-Jun-16 09:01N 46°11' W 123°52'0 0.0
2018-Jun-16 08:30N 46°11' W 123°52'0 0.0
2018-Jun-16 08:01N 46°11' W 123°52'0 0.0
2018-Jun-16 07:31N 46°11' W 123°52'0 0.0
2018-Jun-16 06:59N 46°11' W 123°52'0 0.0
2018-Jun-16 06:31N 46°11' W 123°52'0 0.0
2018-Jun-16 06:01N 46°11' W 123°52'0 0.0
2018-Jun-16 05:30N 46°11' W 123°52'0 0.0
2018-Jun-16 05:01N 46°11' W 123°52'0 0.0
2018-Jun-16 04:28N 46°11' W 123°52'1 2.3
2018-Jun-16 03:54N 46°11' W 123°54'2 5.5
2018-Jun-16 03:30N 46°12' W 123°56'3 5.6
2018-Jun-16 03:01N 46°15' W 123°59'3 5.3
2018-Jun-16 02:31N 46°16' W 124°02'3 5.4
2018-Jun-16 01:53N 46°17' W 124°07'4 9.6
2018-Jun-16 01:30N 46°20' W 124°09'5 9.6
2018-Jun-16 01:01N 46°25' W 124°11'5 9.8
2018-Jun-16 00:30N 46°29' W 124°14'510.2
2018-Jun-16 00:01N 46°34' W 124°17'510.2
2018-Jun-15 23:31N 46°39' W 124°19'510.4
2018-Jun-15 23:00N 46°44' W 124°21'510.5
2018-Jun-15 22:30N 46°49' W 124°24'510.0
2018-Jun-15 22:00N 46°53' W 124°26'5 9.3
2018-Jun-15 21:30N 46°58' W 124°28'5 9.0
2018-Jun-15 20:59N 47°02' W 124°31'4 0.1
2018-Jun-14 14:45N 46°60' W 124°35'4 9.4
2018-Jun-14 14:23N 46°57' W 124°33'3 9.5
2018-Jun-14 14:00N 46°53' W 124°31'5 9.5
2018-Jun-14 13:30N 46°49' W 124°28'5 9.6
2018-Jun-14 13:00N 46°45' W 124°25'5 9.6
2018-Jun-14 12:30N 46°40' W 124°23'5 9.4
2018-Jun-14 12:01N 46°36' W 124°20'5 9.4
2018-Jun-14 11:30N 46°31' W 124°18'5 9.7
2018-Jun-14 11:01N 46°27' W 124°15'510.0
2018-Jun-14 10:30N 46°22' W 124°13'5 9.3
2018-Jun-14 10:01N 46°18' W 124°10'4 8.8
2018-Jun-14 09:30N 46°15' W 124°05'5 9.8
2018-Jun-14 09:01N 46°14' W 123°58'5 9.4
2018-Jun-14 08:30N 46°12' W 123°52'0 1.0
2018-Jun-14 08:00N 46°11' W 123°52'0 0.0
2018-Jun-14 07:30N 46°11' W 123°52'0 0.1
2018-Jun-14 06:59N 46°11' W 123°52'0 0.1
2018-Jun-14 06:30N 46°11' W 123°52'0 0.0
2018-Jun-14 06:00N 46°11' W 123°52'0 0.0
2018-Jun-14 05:23N 46°11' W 123°52'0 0.0
2018-Jun-14 05:00N 46°11' W 123°52'0 0.0
2018-Jun-14 04:30N 46°11' W 123°52'0 0.0
2018-Jun-14 04:00N 46°11' W 123°52'0 0.1
2018-Jun-14 03:18N 46°11' W 123°52'0 0.1
2018-Jun-14 03:00N 46°11' W 123°52'0 0.9
2018-Jun-14 02:30N 46°11' W 123°52'3 5.1
2018-Jun-14 02:01N 46°12' W 123°56'3 5.6
2018-Jun-14 01:30N 46°14' W 123°59'3 5.6
2018-Jun-14 01:00N 46°16' W 124°02'3 5.3
2018-Jun-14 00:30N 46°16' W 124°06'4 8.1
2018-Jun-14 00:00N 46°19' W 124°09'5 9.1
2018-Jun-13 23:30N 46°23' W 124°11'5 9.0
2018-Jun-13 23:01N 46°27' W 124°14'4 8.8
2018-Jun-13 22:30N 46°32' W 124°16'4 8.3
2018-Jun-13 22:00N 46°35' W 124°19'4 8.5
2018-Jun-13 21:30N 46°39' W 124°21'4 8.6
2018-Jun-13 21:00N 46°43' W 124°24'4 8.6
2018-Jun-13 20:31N 46°47' W 124°26'4 8.7
2018-Jun-13 20:00N 46°51' W 124°29'4 8.8
2018-Jun-13 19:30N 46°55' W 124°31'4 8.6
2018-Jun-13 19:00N 46°59' W 124°34'3 0.2
2018-Jun-13 06:33N 46°60' W 124°37'2 7.4
2018-Jun-13 06:14N 46°58' W 124°36'2 7.5
2018-Jun-13 06:00N 46°56' W 124°35'4 7.6
2018-Jun-13 05:31N 46°53' W 124°32'4 7.8
2018-Jun-13 05:01N 46°49' W 124°30'4 7.8
2018-Jun-13 04:30N 46°46' W 124°28'6 7.7
2018-Jun-13 03:47N 46°41' W 124°25'3 8.3
2018-Jun-13 03:27N 46°38' W 124°23'4 8.4
2018-Jun-13 03:00N 46°35' W 124°21'6 8.0
2018-Jun-13 02:14N 46°29' W 124°17'2 8.1
2018-Jun-13 02:00N 46°27' W 124°16'4 7.9
2018-Jun-13 01:30N 46°24' W 124°15'1 1.2
2018-Jun-13 01:00N 46°23' W 124°14'2 3.5
2018-Jun-13 00:30N 46°22' W 124°13'4 7.3
2018-Jun-13 00:01N 46°18' W 124°11'4 7.4
2018-Jun-12 23:31N 46°16' W 124°07'611.0
2018-Jun-12 22:59N 46°14' W 123°59'510.5
2018-Jun-12 22:30N 46°11' W 123°53'1 1.8
2018-Jun-12 22:00N 46°11' W 123°52'0 0.0
2018-Jun-12 21:26N 46°11' W 123°52'0 0.0
2018-Jun-12 21:00N 46°11' W 123°52'0 0.1
2018-Jun-12 20:30N 46°11' W 123°52'0 0.1
2018-Jun-12 20:00N 46°11' W 123°52'0 0.0
2018-Jun-12 19:30N 46°11' W 123°52'0 0.0
2018-Jun-12 19:00N 46°11' W 123°52'0 0.0
2018-Jun-12 18:30N 46°11' W 123°52'0 0.0
2018-Jun-12 18:01N 46°11' W 123°52'0 0.0
2018-Jun-12 17:20N 46°11' W 123°52'0 0.0
2018-Jun-12 17:01N 46°11' W 123°52'1 1.2
2018-Jun-12 16:30N 46°12' W 123°51'1 1.0
2018-Jun-12 16:00N 46°12' W 123°50'0 0.3
2018-Jun-12 15:31N 46°12' W 123°51'3 6.1
2018-Jun-12 15:00N 46°12' W 123°55'4 7.2
2018-Jun-12 14:31N 46°14' W 123°59'3 6.6
2018-Jun-12 14:01N 46°15' W 124°03'3 5.7
2018-Jun-12 13:30N 46°16' W 124°07'3 6.1
2018-Jun-12 13:00N 46°19' W 124°09'3 7.0
2018-Jun-12 12:31N 46°23' W 124°10'4 7.7
2018-Jun-12 12:00N 46°26' W 124°13'6 7.8
2018-Jun-12 11:17N 46°31' W 124°16'2 8.4
2018-Jun-12 11:01N 46°34' W 124°17'4 8.1
2018-Jun-12 10:31N 46°37' W 124°19'4 8.3
2018-Jun-12 10:00N 46°41' W 124°21'4 8.6
2018-Jun-12 09:30N 46°45' W 124°23'4 8.8
2018-Jun-12 09:00N 46°49' W 124°26'4 8.6
2018-Jun-12 08:31N 46°53' W 124°28'4 8.5
2018-Jun-12 08:00N 46°57' W 124°30'4 8.5
2018-Jun-12 07:30N 47°01' W 124°32'10 8.7
2018-Jun-12 06:24N 47°10' W 124°38'4 9.0
2018-Jun-12 06:00N 47°13' W 124°40'5 8.9
2018-Jun-12 05:30N 47°18' W 124°42'19 1.2
2018-Jun-11 14:23N 46°60' W 124°35'3 9.0
2018-Jun-11 14:01N 46°57' W 124°33'5 9.3
2018-Jun-11 13:30N 46°52' W 124°30'5 9.3
2018-Jun-11 13:00N 46°48' W 124°28'5 9.6
2018-Jun-11 12:30N 46°43' W 124°25'6 9.8
2018-Jun-11 11:56N 46°38' W 124°22'410.0
2018-Jun-11 11:30N 46°34' W 124°20'5 9.8
2018-Jun-11 11:00N 46°30' W 124°17'1010.3
2018-Jun-11 10:05N 46°21' W 124°12'110.9
2018-Jun-11 10:00N 46°20' W 124°11'6 9.2
2018-Jun-11 09:20N 46°15' W 124°06'411.5
2018-Jun-11 09:01N 46°15' W 124°00'611.9
2018-Jun-11 08:30N 46°11' W 123°53'1 2.2
2018-Jun-11 08:01N 46°11' W 123°52'0 0.0
2018-Jun-11 07:30N 46°11' W 123°52'0 0.0
2018-Jun-11 06:58N 46°11' W 123°52'0 0.0
2018-Jun-11 06:30N 46°11' W 123°52'0 0.0
2018-Jun-11 06:00N 46°11' W 123°52'0 0.0
2018-Jun-11 05:23N 46°11' W 123°52'0 0.0
2018-Jun-11 05:00N 46°11' W 123°52'0 0.0
2018-Jun-11 04:17N 46°11' W 123°52'0 0.0
2018-Jun-11 04:00N 46°11' W 123°52'0 0.0
2018-Jun-11 03:30N 46°11' W 123°52'1 2.5
2018-Jun-11 03:00N 46°11' W 123°54'5 9.7
2018-Jun-11 02:30N 46°14' W 123°59'5 9.1
2018-Jun-11 02:00N 46°15' W 124°06'4 7.8
2018-Jun-11 01:30N 46°19' W 124°09'5 8.5
2018-Jun-11 00:55N 46°23' W 124°12'5 8.6
2018-Jun-11 00:20N 46°28' W 124°15'3 9.4
2018-Jun-11 00:00N 46°31' W 124°17'5 9.6
2018-Jun-10 23:30N 46°35' W 124°19'5 9.4
2018-Jun-10 23:00N 46°39' W 124°22'5 9.5
2018-Jun-10 22:30N 46°44' W 124°24'5 9.6
2018-Jun-10 22:00N 46°48' W 124°27'6 9.7
2018-Jun-10 21:23N 46°54' W 124°30'3 8.4
2018-Jun-10 21:00N 46°57' W 124°31'4 0.3
2018-Jun-10 05:17N 46°60' W 124°35'1 5.1
2018-Jun-10 05:00N 46°59' W 124°34'3 5.4
2018-Jun-10 04:30N 46°56' W 124°33'3 5.3
2018-Jun-10 04:00N 46°54' W 124°31'4 5.3
2018-Jun-10 03:11N 46°50' W 124°29'1 5.4
2018-Jun-10 03:00N 46°49' W 124°28'4 5.5
2018-Jun-10 02:15N 46°45' W 124°26'1 5.6
2018-Jun-10 02:00N 46°44' W 124°25'3 5.8
2018-Jun-10 01:30N 46°41' W 124°24'6 5.2
2018-Jun-10 00:26N 46°36' W 124°21'3 6.5
2018-Jun-10 00:00N 46°33' W 124°19'3 6.4
2018-Jun-09 23:30N 46°30' W 124°18'3 6.5
2018-Jun-09 23:00N 46°27' W 124°16'3 6.3
2018-Jun-09 22:30N 46°24' W 124°15'3 6.5
2018-Jun-09 22:00N 46°21' W 124°13'3 6.9
2018-Jun-09 21:30N 46°18' W 124°11'4 7.5
2018-Jun-09 21:00N 46°15' W 124°07'5 9.2
2018-Jun-09 20:30N 46°15' W 124°00'4 7.9
2018-Jun-09 20:00N 46°12' W 123°56'0 0.0
2018-Jun-09 19:30N 46°12' W 123°56'0 0.0
2018-Jun-09 18:50N 46°12' W 123°56'0 0.0
2018-Jun-09 18:30N 46°12' W 123°56'0 0.0
2018-Jun-09 18:01N 46°12' W 123°56'0 0.0
2018-Jun-09 17:31N 46°12' W 123°56'0 0.0
2018-Jun-09 17:00N 46°12' W 123°56'0 0.0
2018-Jun-09 16:30N 46°12' W 123°56'0 0.0
2018-Jun-09 16:00N 46°12' W 123°56'0 0.0
2018-Jun-09 15:00N 46°12' W 123°56'0 0.0
2018-Jun-09 14:31N 46°12' W 123°56'0 0.0
2018-Jun-09 13:47N 46°12' W 123°56'0 0.0
2018-Jun-09 13:28N 46°12' W 123°56'0 0.0
2018-Jun-09 13:00N 46°12' W 123°56'0 0.0
2018-Jun-09 12:30N 46°12' W 123°56'0 0.0
2018-Jun-09 12:01N 46°12' W 123°56'0 0.0
2018-Jun-09 11:30N 46°12' W 123°56'0 0.0
2018-Jun-09 11:00N 46°12' W 123°56'0 0.0
2018-Jun-09 10:30N 46°12' W 123°56'0 0.0
2018-Jun-09 10:00N 46°12' W 123°56'0 0.0
2018-Jun-09 09:30N 46°12' W 123°56'0 0.0
2018-Jun-09 09:00N 46°12' W 123°56'0 0.0
2018-Jun-09 08:30N 46°12' W 123°56'0 0.0
2018-Jun-09 08:00N 46°12' W 123°56'0 0.0
2018-Jun-09 07:18N 46°12' W 123°56'0 0.0
2018-Jun-09 06:59N 46°12' W 123°56'0 0.0
2018-Jun-09 06:30N 46°12' W 123°56'0 0.0
2018-Jun-09 06:01N 46°12' W 123°56'0 0.0
2018-Jun-09 05:30N 46°12' W 123°56'0 0.0
2018-Jun-09 05:00N 46°12' W 123°56'0 0.0
2018-Jun-09 04:30N 46°12' W 123°56'0 0.0
2018-Jun-09 03:48N 46°12' W 123°56'0 0.0
2018-Jun-09 03:17N 46°12' W 123°56'0 0.0
2018-Jun-09 02:49N 46°12' W 123°56'0 0.0
2018-Jun-09 02:30N 46°12' W 123°56'0 0.0
2018-Jun-09 01:53N 46°12' W 123°56'0 0.0
2018-Jun-09 01:10N 46°12' W 123°56'0 0.0
2018-Jun-09 01:00N 46°12' W 123°56'0 0.0
2018-Jun-09 00:30N 46°12' W 123°56'0 0.1
2018-Jun-09 00:00N 46°12' W 123°56'0 0.0
2018-Jun-08 23:30N 46°12' W 123°56'0 0.1
2018-Jun-08 23:00N 46°12' W 123°56'3 5.0
2018-Jun-08 22:31N 46°14' W 123°59'3 6.1
2018-Jun-08 22:00N 46°15' W 124°03'3 5.4
2018-Jun-08 21:30N 46°15' W 124°07'2 4.4
2018-Jun-08 21:00N 46°16' W 124°10'3 5.6
2018-Jun-08 20:30N 46°18' W 124°13'3 6.9
2018-Jun-08 20:00N 46°21' W 124°16'4 7.7
2018-Jun-08 19:30N 46°24' W 124°20'4 8.0
2018-Jun-08 19:00N 46°26' W 124°24'4 7.9
2018-Jun-08 18:30N 46°29' W 124°28'4 8.0
2018-Jun-08 18:00N 46°32' W 124°32'4 7.6
2018-Jun-08 17:30N 46°35' W 124°35'4 6.1
2018-Jun-08 16:49N 46°38' W 124°40'1 3.5
2018-Jun-08 16:30N 46°39' W 124°41'1 1.9
2018-Jun-08 16:00N 46°38' W 124°40'1 1.3
2018-Jun-08 15:30N 46°38' W 124°39'1 2.2
2018-Jun-08 14:50N 46°38' W 124°41'1 2.9
2018-Jun-08 14:30N 46°39' W 124°42'1 2.8
2018-Jun-08 14:00N 46°40' W 124°44'1 2.8
2018-Jun-08 13:30N 46°41' W 124°45'2 3.1
2018-Jun-08 13:00N 46°42' W 124°47'1 2.2
2018-Jun-08 12:29N 46°41' W 124°46'3 6.2
2018-Jun-08 12:00N 46°39' W 124°42'2 4.5
2018-Jun-08 11:30N 46°38' W 124°40'2 4.3
2018-Jun-08 11:00N 46°36' W 124°38'2 4.9
2018-Jun-08 10:30N 46°35' W 124°35'4 4.9
2018-Jun-08 09:40N 46°31' W 124°31'1 4.6
2018-Jun-08 09:30N 46°31' W 124°31'  

Dump ship's entire track history